createdAt,value
2018-01-27T18:04:37.674Z,23.1
2018-01-27T18:05:37.806Z,23.1
2018-01-27T18:06:37.493Z,23.1
2018-01-27T18:07:37.389Z,23.1
2018-01-27T18:08:37.246Z,23
2018-01-27T18:09:37.232Z,22.9
2018-01-27T18:10:37.218Z,22.9
2018-01-27T18:11:37.014Z,22.9
2018-01-27T18:12:37.283Z,22.8
2018-01-27T18:13:36.870Z,22.9
2018-01-27T18:14:36.807Z,22.8
2018-01-27T18:15:36.713Z,22.8
2018-01-27T18:16:36.653Z,22.8
2018-01-27T18:17:36.547Z,22.7
2018-01-27T18:18:36.641Z,22.8
2018-01-27T18:19:36.391Z,22.8
2018-01-27T18:20:36.444Z,22.7
2018-01-27T18:21:36.341Z,22.6
2018-01-27T18:22:36.290Z,22.6
2018-01-27T18:23:36.083Z,22.7
2018-01-27T18:24:36.173Z,22.7
2018-01-27T18:25:35.913Z,22.6
2018-01-27T18:26:35.854Z,22.6
2018-01-27T18:27:35.936Z,22.6
2018-01-27T18:28:35.773Z,22.7
2018-01-27T18:29:35.783Z,22.6
2018-01-27T18:30:35.617Z,22.6
2018-01-27T18:31:35.586Z,22.6
2018-01-27T18:32:35.385Z,22.6
2018-01-27T18:33:35.315Z,22.7
2018-01-27T18:34:35.347Z,22.6
2018-01-27T18:35:35.132Z,22.6
2018-01-27T18:36:35.113Z,22.6
2018-01-27T18:37:34.972Z,22.5
2018-01-27T18:38:34.923Z,22.6
2018-01-27T18:39:34.829Z,22.5
2018-01-27T18:40:34.807Z,22.4
2018-01-27T18:41:34.660Z,22.4
2018-01-27T18:42:34.714Z,22.4
2018-01-27T18:43:34.639Z,22.4
2018-01-27T18:44:34.445Z,22.4
2018-01-27T18:45:34.409Z,22.5
2018-01-27T18:46:34.356Z,22.5
2018-01-27T18:47:34.472Z,22.5
2018-01-27T18:48:34.173Z,22.5
2018-01-27T18:49:34.045Z,22.6
2018-01-27T18:50:33.979Z,22.6
2018-01-27T18:51:33.904Z,22.6
2018-01-27T18:52:33.797Z,22.6
2018-01-27T18:53:33.897Z,22.6
2018-01-27T18:54:33.654Z,22.6
2018-01-27T18:55:33.599Z,22.7
2018-01-27T18:56:33.483Z,22.8
2018-01-27T18:57:33.776Z,22.8
2018-01-27T18:58:33.649Z,22.9
2018-01-27T18:59:33.369Z,23
2018-01-27T19:00:33.208Z,23.1
2018-01-27T19:01:33.278Z,23.1
2018-01-27T19:02:33.103Z,23.1
2018-01-27T19:03:33.103Z,23.1
2018-01-27T19:04:32.980Z,23.1
2018-01-27T19:05:32.817Z,23.1
2018-01-27T19:06:32.750Z,23
2018-01-27T19:07:32.632Z,22.9
2018-01-27T19:08:32.931Z,22.8
2018-01-27T19:09:32.526Z,22.6
2018-01-27T19:10:32.498Z,22.6
2018-01-27T19:11:32.356Z,22.6
2018-01-27T19:12:32.343Z,22.4
2018-01-27T19:13:32.348Z,22.4
2018-01-27T19:14:32.177Z,22.4
2018-01-27T19:15:32.094Z,22.6
2018-01-27T19:16:32.033Z,22.6
2018-01-27T19:17:32.012Z,22.8
2018-01-27T19:18:32.085Z,22.9
2018-01-27T19:19:31.805Z,23
2018-01-27T19:20:31.797Z,23.1
2018-01-27T19:21:31.761Z,23.1
2018-01-27T19:22:31.581Z,23.3
2018-01-27T19:23:31.616Z,23.3
2018-01-27T19:24:31.562Z,23.3
2018-01-27T19:25:31.401Z,23.1
2018-01-27T19:26:31.310Z,23
2018-01-27T19:27:31.353Z,23.1
2018-01-27T19:28:31.195Z,23
2018-01-27T19:29:31.280Z,22.9
2018-01-27T19:30:31.142Z,22.8
2018-01-27T19:31:30.954Z,22.7
2018-01-27T19:32:30.889Z,22.6
2018-01-27T19:33:30.858Z,22.5
2018-01-27T19:34:30.880Z,22.5
2018-01-27T19:35:30.752Z,22.4
2018-01-27T19:36:30.938Z,22.4
2018-01-27T19:37:30.523Z,22.4
2018-01-27T19:38:30.496Z,22.4
2018-01-27T19:39:30.737Z,22.4
2018-01-27T19:40:30.308Z,22.5
2018-01-27T19:41:30.407Z,22.5
2018-01-27T19:42:30.262Z,22.5
2018-01-27T19:43:30.270Z,22.6
2018-01-27T19:44:30.167Z,22.6
2018-01-27T19:45:30.064Z,22.6
2018-01-27T19:46:29.944Z,22.6
2018-01-27T19:47:29.861Z,22.6
2018-01-27T19:48:29.865Z,22.6
2018-01-27T19:49:29.705Z,22.6
2018-01-27T19:50:29.609Z,22.7
2018-01-27T19:51:29.584Z,22.7
2018-01-27T19:52:29.439Z,22.8
2018-01-27T19:53:29.555Z,22.8
2018-01-27T19:54:29.344Z,22.9
2018-01-27T19:55:29.354Z,22.9
2018-01-27T19:56:29.230Z,22.8
2018-01-27T19:57:29.086Z,22.7
2018-01-27T19:58:29.199Z,22.6
2018-01-27T19:59:28.975Z,22.6
2018-01-27T20:00:29.062Z,22.5
2018-01-27T20:01:28.812Z,22.4
2018-01-27T20:02:28.756Z,22.4
2018-01-27T20:03:28.786Z,22.4
2018-01-27T20:04:28.686Z,22.4
2018-01-27T20:05:28.557Z,22.4
2018-01-27T20:06:28.416Z,22.4
2018-01-27T20:07:28.473Z,22.4
2018-01-27T20:08:28.272Z,22.4
2018-01-27T20:09:28.240Z,22.4
2018-01-27T20:10:28.144Z,22.4
2018-01-27T20:11:28.023Z,22.4
2018-01-27T20:12:27.946Z,22.4
2018-01-27T20:13:28.049Z,22.4
2018-01-27T20:14:27.803Z,22.4
2018-01-27T20:15:27.740Z,22.4
2018-01-27T20:16:27.747Z,22.4
2018-01-27T20:17:27.586Z,22.4
2018-01-27T20:18:27.511Z,22.5
2018-01-27T20:19:27.411Z,22.5
2018-01-27T20:20:27.664Z,22.6
2018-01-27T20:21:27.332Z,22.6
2018-01-27T20:22:27.226Z,22.6
2018-01-27T20:23:27.175Z,22.6
2018-01-27T20:24:27.073Z,22.6
2018-01-27T20:25:50.963Z,22.6
2018-01-27T20:26:52.166Z,22.6
2018-01-27T20:27:53.070Z,22.6
2018-01-27T20:28:54.134Z,22.6
2018-01-27T20:29:55.199Z,22.6
2018-01-27T20:30:56.165Z,22.6
2018-01-27T20:31:57.188Z,22.6
2018-01-27T20:32:38.844Z,22.6
2018-01-27T20:33:59.309Z,22.6
2018-01-27T20:35:00.230Z,22.7
2018-01-27T20:36:01.268Z,22.8
2018-01-27T20:36:41.858Z,23
2018-01-27T20:37:41.658Z,23.1
2018-01-27T20:38:41.600Z,23
2018-01-27T20:39:41.490Z,23
2018-01-27T20:40:41.590Z,23.1
2018-01-27T20:41:41.510Z,23.1
2018-01-27T20:42:41.272Z,23.1
2018-01-27T20:43:41.292Z,22.9
2018-01-27T20:44:41.235Z,22.9
2018-01-27T20:45:41.033Z,22.9
2018-01-27T20:46:41.119Z,22.9
2018-01-27T20:47:40.866Z,22.8
2018-01-27T20:48:40.815Z,22.7
2018-01-27T20:49:40.819Z,22.5
2018-01-27T20:50:40.656Z,22.4
2018-01-27T20:51:40.612Z,22.3
2018-01-27T20:52:40.560Z,22.2
2018-01-27T20:53:40.420Z,22.1
2018-01-27T20:54:40.329Z,22.1
2018-01-27T20:55:40.240Z,22.1
2018-01-27T20:56:40.335Z,22.1
2018-01-27T20:57:40.099Z,22.1
2018-01-27T20:58:40.129Z,22.1
2018-01-27T20:59:40.064Z,22.1
2018-01-27T21:00:39.844Z,22.1
2018-01-27T21:01:39.946Z,22.1
2018-01-27T21:02:39.801Z,22.1
2018-01-27T21:03:39.745Z,22.1
2018-01-27T21:04:39.621Z,22.1
2018-01-27T21:05:39.515Z,22.1
2018-01-27T21:06:39.410Z,22.2
2018-01-27T21:07:39.309Z,22.2
2018-01-27T21:08:39.354Z,22.3
2018-01-27T21:09:39.166Z,22.3
2018-01-27T21:10:39.357Z,22.3
2018-01-27T21:11:39.160Z,22.3
2018-01-27T21:12:38.902Z,22.3
2018-01-27T21:13:38.891Z,22.3
2018-01-27T21:14:38.769Z,22.4
2018-01-27T21:15:38.685Z,22.4
2018-01-27T21:16:38.769Z,22.4
2018-01-27T21:17:38.602Z,22.4
2018-01-27T21:18:38.753Z,22.4
2018-01-27T21:19:38.368Z,22.5
2018-01-27T21:20:38.308Z,22.5
2018-01-27T21:21:38.210Z,22.5
2018-01-27T21:22:38.148Z,22.6
2018-01-27T21:23:38.219Z,22.6
2018-01-27T21:24:37.964Z,22.6
2018-01-27T21:25:38.021Z,22.6
2018-01-27T21:26:37.918Z,22.7
2018-01-27T21:27:38.064Z,22.6
2018-01-27T21:28:37.665Z,22.7
2018-01-27T21:29:37.637Z,22.8
2018-01-27T21:30:37.512Z,23
2018-01-27T21:31:37.430Z,23.2
2018-01-27T21:32:37.401Z,23.2
2018-01-27T21:33:37.354Z,23.1
2018-01-27T21:34:37.243Z,23.3
2018-01-27T21:35:37.239Z,23.4
2018-01-27T21:36:37.057Z,23.4
2018-01-27T21:37:37.056Z,23.3
2018-01-27T21:38:37.172Z,23.1
2018-01-27T21:39:36.877Z,23.1
2018-01-27T21:40:36.771Z,23.1
2018-01-27T21:41:36.632Z,23.2
2018-01-27T21:42:36.614Z,22.9
2018-01-27T21:43:36.588Z,22.8
2018-01-27T21:44:36.423Z,22.6
2018-01-27T21:45:36.315Z,22.4
2018-01-27T21:46:36.274Z,22.3
2018-01-27T21:47:36.192Z,22.2
2018-01-27T21:48:36.193Z,22.1
2018-01-27T21:49:36.139Z,22.1
2018-01-27T21:50:36.012Z,22
2018-01-27T21:51:35.956Z,22
2018-01-27T21:52:35.798Z,21.9
2018-01-27T21:53:35.701Z,21.9
2018-01-27T21:54:35.753Z,21.9
2018-01-27T21:55:35.894Z,21.9
2018-01-27T21:56:35.595Z,21.9
2018-01-27T21:57:35.509Z,21.9
2018-01-27T21:58:35.308Z,21.9
2018-01-27T21:59:35.570Z,21.9
2018-01-27T22:00:35.139Z,21.9
2018-01-27T22:01:35.200Z,21.9
2018-01-27T22:02:35.102Z,21.9
2018-01-27T22:03:34.917Z,21.9
2018-01-27T22:04:35.002Z,22
2018-01-27T22:05:34.743Z,22.1
2018-01-27T22:06:34.757Z,22.1
2018-01-27T22:07:34.656Z,22.1
2018-01-27T22:08:34.808Z,22.1
2018-01-27T22:09:34.463Z,22.1
2018-01-27T22:10:34.378Z,22.1
2018-01-27T22:11:34.331Z,22.2
2018-01-27T22:12:34.261Z,22.2
2018-01-27T22:13:34.230Z,22.2
2018-01-27T22:14:34.078Z,22.2
2018-01-27T22:15:34.055Z,22.3
2018-01-27T22:16:33.946Z,22.3
2018-01-27T22:17:33.803Z,22.3
2018-01-27T22:18:33.762Z,22.3
2018-01-27T22:19:33.679Z,22.3
2018-01-27T22:20:33.681Z,22.4
2018-01-27T22:21:33.521Z,22.4
2018-01-27T22:22:33.413Z,22.4
2018-01-27T22:23:33.400Z,22.4
2018-01-27T22:24:33.259Z,22.5
2018-01-27T22:25:33.240Z,22.6
2018-01-27T22:26:33.124Z,22.6
2018-01-27T22:27:33.019Z,22.6
2018-01-27T22:28:33.006Z,22.6
2018-01-27T22:29:32.979Z,22.7
2018-01-27T22:30:32.922Z,22.9
2018-01-27T22:31:32.762Z,23.1
2018-01-27T22:32:32.656Z,23.2
2018-01-27T22:33:32.546Z,23.1
2018-01-27T22:34:32.534Z,23.1
2018-01-27T22:35:32.487Z,23.3
2018-01-27T22:36:32.344Z,23.4
2018-01-27T22:37:32.249Z,23.3
2018-01-27T22:38:32.191Z,23.1
2018-01-27T22:39:32.093Z,23.1
2018-01-27T22:40:32.182Z,23.1
2018-01-27T22:41:31.923Z,23.1
2018-01-27T22:42:31.867Z,23
2018-01-27T22:43:31.832Z,22.7
2018-01-27T22:44:31.689Z,22.5
2018-01-27T22:45:31.786Z,22.4
2018-01-27T22:46:31.528Z,22.3
2018-01-27T22:47:31.485Z,22.1
2018-01-27T22:48:31.386Z,22.1
2018-01-27T22:49:31.294Z,22
2018-01-27T22:50:31.367Z,21.9
2018-01-27T22:51:31.460Z,21.9
2018-01-27T22:52:31.174Z,21.9
2018-01-27T22:53:31.012Z,21.9
2018-01-27T22:54:30.992Z,21.9
2018-01-27T22:55:31.001Z,21.9
2018-01-27T22:56:30.759Z,21.9
2018-01-27T22:57:30.696Z,22
2018-01-27T22:58:30.623Z,22
2018-01-27T22:59:30.597Z,22.1
2018-01-27T23:00:30.492Z,22
2018-01-27T23:01:30.369Z,22.1
2018-01-27T23:02:30.411Z,22.1
2018-01-27T23:03:30.229Z,22.1
2018-01-27T23:04:30.129Z,22.1
2018-01-27T23:05:30.099Z,22.1
2018-01-27T23:06:29.992Z,22.1
2018-01-27T23:07:29.880Z,22.2
2018-01-27T23:08:29.831Z,22.1
2018-01-27T23:09:29.836Z,22.2
2018-01-27T23:10:29.710Z,22.2
2018-01-27T23:11:29.569Z,22.2
2018-01-27T23:12:29.522Z,22.2
2018-01-27T23:13:29.523Z,22.3
2018-01-27T23:14:29.458Z,22.3
2018-01-27T23:15:29.315Z,22.3
2018-01-27T23:16:29.267Z,22.3
2018-01-27T23:17:29.161Z,22.4
2018-01-27T23:18:29.017Z,22.4
2018-01-27T23:19:29.269Z,22.4
2018-01-27T23:20:28.873Z,22.4
2018-01-27T23:21:28.918Z,22.4
2018-01-27T23:22:29.028Z,22.5
2018-01-27T23:23:28.714Z,22.5
2018-01-27T23:24:28.681Z,22.5
2018-01-27T23:25:28.483Z,22.6
2018-01-27T23:26:28.452Z,22.6
2018-01-27T23:27:28.314Z,22.6
2018-01-27T23:28:28.301Z,22.6
2018-01-27T23:29:28.156Z,22.6
2018-01-27T23:30:28.094Z,22.6
2018-01-27T23:31:28.111Z,22.6
2018-01-27T23:32:28.054Z,22.7
2018-01-27T23:33:27.840Z,22.9
2018-01-27T23:34:27.938Z,23
2018-01-27T23:35:27.685Z,23.2
2018-01-27T23:36:27.667Z,23.1
2018-01-27T23:37:27.538Z,23.1
2018-01-27T23:38:27.458Z,23.2
2018-01-27T23:39:27.429Z,23.3
2018-01-27T23:40:27.400Z,23.3
2018-01-27T23:41:27.353Z,23.1
2018-01-27T23:42:27.244Z,22.9
2018-01-27T23:43:27.188Z,23
2018-01-27T23:44:27.063Z,23
2018-01-27T23:45:26.959Z,22.9
2018-01-27T23:46:26.960Z,22.6
2018-01-27T23:47:26.768Z,22.5
2018-01-27T23:48:26.772Z,22.3
2018-01-27T23:49:26.640Z,22.2
2018-01-27T23:50:26.517Z,22.1
2018-01-27T23:51:26.492Z,22
2018-01-27T23:52:26.783Z,22
2018-01-27T23:53:26.601Z,21.9
2018-01-27T23:54:26.522Z,21.9
2018-01-27T23:55:26.403Z,21.9
2018-01-27T23:56:26.501Z,21.9
2018-01-27T23:57:26.246Z,21.9
2018-01-27T23:58:26.305Z,21.9
2018-01-27T23:59:26.203Z,21.9
